createdAt,value
2018-02-01T00:02:39.000Z,23.65
2018-02-01T00:12:39.000Z,23.61
2018-02-01T00:22:39.000Z,23.56
2018-02-01T00:32:39.000Z,23.52
2018-02-01T00:42:39.000Z,23.46
2018-02-01T00:52:39.000Z,23.42
2018-02-01T01:02:39.000Z,23.35
2018-02-01T01:12:39.000Z,23.26
2018-02-01T01:22:39.000Z,23.19
2018-02-01T01:32:39.000Z,23.15
2018-02-01T01:42:39.000Z,23.09
2018-02-01T01:52:39.000Z,23.04
2018-02-01T02:02:39.000Z,23.05
2018-02-01T02:12:39.000Z,22.94
2018-02-01T02:22:39.000Z,22.86
2018-02-01T02:32:39.000Z,22.81
2018-02-01T02:42:39.000Z,22.81
2018-02-01T02:52:39.000Z,22.8
2018-02-01T03:02:39.000Z,22.7
2018-02-01T03:12:39.000Z,22.64
2018-02-01T03:22:39.000Z,22.6
2018-02-01T03:32:39.000Z,22.57
2018-02-01T03:42:39.000Z,22.52
2018-02-01T03:52:39.000Z,22.43
2018-02-01T04:02:39.000Z,22.4
2018-02-01T04:12:39.000Z,22.38
2018-02-01T04:22:39.000Z,22.3
2018-02-01T04:32:39.000Z,22.19
2018-02-01T04:42:39.000Z,22.15
2018-02-01T04:52:39.000Z,22.13
2018-02-01T05:02:39.000Z,22.06
2018-02-01T05:12:39.000Z,22.05
2018-02-01T05:22:39.000Z,21.99
2018-02-01T05:32:39.000Z,22.08
2018-02-01T05:42:39.000Z,22.05
2018-02-01T05:52:39.000Z,22.02
2018-02-01T06:02:39.000Z,22.07
2018-02-01T06:12:39.000Z,22.05
2018-02-01T06:22:39.000Z,22.09
2018-02-01T06:32:39.000Z,22.11
2018-02-01T06:42:39.000Z,22.18
2018-02-01T06:52:40.000Z,22.21
2018-02-01T07:02:40.000Z,22.19
2018-02-01T07:12:40.000Z,22.17
2018-02-01T07:22:40.000Z,22.23
2018-02-01T07:32:40.000Z,22.31
2018-02-01T07:42:40.000Z,22.32
2018-02-01T07:52:40.000Z,22.35
2018-02-01T08:02:40.000Z,22.44
2018-02-01T08:12:40.000Z,22.49
2018-02-01T08:22:40.000Z,22.54
2018-02-01T08:32:40.000Z,22.71
2018-02-01T08:42:40.000Z,22.78
2018-02-01T08:52:40.000Z,22.94
2018-02-01T09:02:40.000Z,23.06
2018-02-01T09:12:40.000Z,23.19
2018-02-01T09:22:40.000Z,23.39
2018-02-01T09:32:40.000Z,23.59
2018-02-01T09:42:40.000Z,23.79
2018-02-01T09:52:40.000Z,23.98
2018-02-01T10:02:40.000Z,23.91
2018-02-01T10:12:40.000Z,23.97
2018-02-01T10:22:40.000Z,24.12
2018-02-01T10:32:40.000Z,24.61
2018-02-01T10:42:40.000Z,24.37
2018-02-01T10:52:40.000Z,24.25
2018-02-01T11:02:40.000Z,24.26
2018-02-01T11:02:48.000Z,24.26
2018-02-01T11:12:47.000Z,24.29
2018-02-01T11:22:47.000Z,24.32
2018-02-01T11:32:47.000Z,24.2
2018-02-01T11:42:47.000Z,24.18
2018-02-01T11:52:47.000Z,24.17
2018-02-01T12:02:47.000Z,24.23
2018-02-01T12:12:47.000Z,24.21
2018-02-01T12:22:47.000Z,24.55
2018-02-01T12:32:47.000Z,24.41
2018-02-01T12:42:47.000Z,24.38
2018-02-01T12:52:47.000Z,24.34
2018-02-01T13:02:48.000Z,24.3
2018-02-01T13:12:48.000Z,24.39
2018-02-01T13:22:48.000Z,24.44
2018-02-01T13:32:48.000Z,24.31
2018-02-01T13:42:48.000Z,24.28
2018-02-01T13:52:48.000Z,24.27
2018-02-01T14:02:48.000Z,24.2
2018-02-01T14:12:48.000Z,24.23
2018-02-01T14:22:48.000Z,24.25
2018-02-01T14:32:48.000Z,24.2
2018-02-01T14:42:48.000Z,24.21
2018-02-01T14:52:48.000Z,24.18
2018-02-01T15:02:48.000Z,24.16
2018-02-01T15:12:48.000Z,24.18
2018-02-01T15:22:48.000Z,24.17
2018-02-01T15:32:48.000Z,24.17
2018-02-01T15:42:48.000Z,24.17
2018-02-01T15:52:48.000Z,24.24
2018-02-01T16:02:48.000Z,24.25
2018-02-01T16:12:48.000Z,24.31
2018-02-01T16:22:48.000Z,24.17
2018-02-01T16:32:48.000Z,24.16
2018-02-01T16:42:48.000Z,24.17
2018-02-01T16:52:48.000Z,24.09
2018-02-01T17:02:48.000Z,24.16
2018-02-01T17:12:48.000Z,24.39
2018-02-01T17:22:48.000Z,24.49
2018-02-01T17:32:48.000Z,24.58
2018-02-01T17:42:48.000Z,24.22
2018-02-01T17:52:48.000Z,24.13
2018-02-01T18:02:48.000Z,24.15
2018-02-01T18:12:48.000Z,24.11
2018-02-01T18:22:48.000Z,24.09
2018-02-01T18:32:48.000Z,24.14
2018-02-01T18:42:48.000Z,24.11
2018-02-01T18:52:48.000Z,24.14
2018-02-01T19:02:48.000Z,24.01
2018-02-01T19:12:48.000Z,24.04
2018-02-01T19:22:48.000Z,24.03
2018-02-01T19:32:48.000Z,24
2018-02-01T19:42:48.000Z,24
2018-02-01T19:52:48.000Z,23.98
2018-02-01T20:02:48.000Z,23.91
2018-02-01T20:12:48.000Z,23.88
2018-02-01T20:22:48.000Z,23.93
2018-02-01T20:32:48.000Z,23.96
2018-02-01T20:42:48.000Z,24.06
2018-02-01T20:52:48.000Z,24.15
2018-02-01T21:02:48.000Z,24.15
2018-02-01T21:12:48.000Z,24.06
2018-02-01T21:22:49.000Z,24.05
2018-02-01T21:32:49.000Z,24.07
2018-02-01T21:42:49.000Z,24.06
2018-02-01T21:52:49.000Z,24.06
2018-02-01T22:02:49.000Z,24.05
2018-02-01T22:12:50.000Z,24.06
2018-02-01T22:22:49.000Z,24.03
2018-02-01T22:32:49.000Z,24.04
2018-02-01T22:42:49.000Z,24.03
2018-02-01T22:52:49.000Z,24.03
2018-02-01T23:02:49.000Z,24.05
2018-02-01T23:12:49.000Z,24.02
2018-02-01T23:22:49.000Z,24.06
2018-02-01T23:32:49.000Z,24.1
2018-02-01T23:52:49.000Z,24.02
